Darstellungsparameter: Aktuell verwendete Einstellungen:
Skalierung der Graphiken ... ?
xyx+y,   Skalierungsfaktor:      Skalierung: Modus: x, Faktor: 1
Darstellungszeitraum ... ?
Vom - - bis: - -   Zeitraum: 15.02.2015 - 15.02.2015
Min/Max/Avg-Anzeige ... ?
Zeige MMA aktuell
Zeige MMA Monat
Zeige MMA alles
Zeige --A aktuell
Zeige --A Monat
Zeige --A alles
Keine MMA-Anzeige
MMA:
Keine MMA-Graphiken
MMA-Basis: 15.02.2015 - 15.02.2015
Quicknavigation für Darstellung... ?
Tage:      1T, 2T, 3T, 5T -1T -2T -3T -5T +1T +2T +3T +5T
Wochen: 1W, 2W, 3W -1W -2W -3W +1W +2W +3W
Monate: 1M, 3M, 6M -1M -3M -6M +1M +3M +6M
Jahre:    1J, 3J, 5J, 10J -1J -3J -5J -10J +1J +3J +5J +10J
Nutze für die Darstellung ... ?
Originaldaten oder Mittelwerte auf ...
Stundenbasis Tagesbasis Wochenbasis
Monatsbasis Jahresbasis      Datenbasis: Original-Daten
Darstellen als:
Statistik (Auto) Statistik J:M      Darstellung:
Zur Graphik,    zurück zur Übersicht aller Sensoren.
 
Tabellarische Datenbersicht: ?
 
Sensor: Nr:Datum:Temp:Feuchte:Taupunkt:
Aussen-T/F 1 15-02-2015 00:00:00 3.2 C 91 % 1.88 C
2 15-02-2015 00:05:00 3 C 91 % 1.68 C
3 15-02-2015 00:10:00 2.8 C 90 % 1.33 C
4 15-02-2015 00:15:00 2.6 C 91 % 1.28 C
5 15-02-2015 00:20:00 2.4 C 91 % 1.08 C
6 15-02-2015 00:25:00 2.3 C 91 % 0.99 C
7 15-02-2015 00:30:00 2.2 C 91 % 0.89 C
8 15-02-2015 00:35:00 2.1 C 91 % 0.79 C
9 15-02-2015 00:40:00 1.8 C 91 % 0.49 C
10 15-02-2015 00:45:00 1.7 C 91 % 0.39 C
11 15-02-2015 00:50:00 1.5 C 91 % 0.19 C
12 15-02-2015 00:55:00 1.6 C 92 % 0.44 C
13 15-02-2015 01:00:00 1.9 C 92 % 0.74 C
14 15-02-2015 01:05:00 2.1 C 91 % 0.79 C
15 15-02-2015 01:10:00 2.2 C 90 % 0.73 C
16 15-02-2015 01:15:00 2.1 C 90 % 0.64 C
17 15-02-2015 01:20:00 2 C 90 % 0.54 C
18 15-02-2015 01:25:00 2 C 90 % 0.54 C
19 15-02-2015 01:30:00 1.8 C 90 % 0.34 C
20 15-02-2015 01:35:00 1.5 C 90 % 0.04 C
21 15-02-2015 01:40:00 1.3 C 90 % -0.15 C
22 15-02-2015 01:45:00 1.1 C 91 % -0.2 C
23 15-02-2015 01:50:00 0.9 C 91 % -0.4 C
24 15-02-2015 01:55:00 0.8 C 92 % -0.35 C
25 15-02-2015 02:00:00 0.7 C 92 % -0.45 C
Sensor: Nr:Datum:Temp:Feuchte:Taupunkt:
Aussen-T/F 26 15-02-2015 02:05:00 0.7 C 92 % -0.45 C
27 15-02-2015 02:10:00 0.6 C 92 % -0.55 C
28 15-02-2015 02:15:00 0.5 C 93 % -0.5 C
29 15-02-2015 02:20:00 0.4 C 93 % -0.6 C
30 15-02-2015 02:25:00 0.3 C 93 % -0.7 C
31 15-02-2015 02:30:00 0.3 C 93 % -0.7 C
32 15-02-2015 02:35:00 0.3 C 93 % -0.7 C
33 15-02-2015 02:40:00 0.2 C 93 % -0.79 C
34 15-02-2015 02:45:00 0.2 C 94 % -0.65 C
35 15-02-2015 02:50:00 0.1 C 94 % -0.75 C
36 15-02-2015 02:55:00 0.1 C 94 % -0.75 C
37 15-02-2015 03:00:00 0.1 C 94 % -0.75 C
38 15-02-2015 03:05:00 0.1 C 94 % -0.75 C
39 15-02-2015 03:10:00 0.1 C 94 % -0.75 C
40 15-02-2015 03:15:00 0.1 C 94 % -0.75 C
41 15-02-2015 03:20:00 0 C 94 % -0.85 C
42 15-02-2015 03:25:00 -0.1 C 94 % -0.95 C
43 15-02-2015 03:30:00 -0.1 C 94 % -0.95 C
44 15-02-2015 03:35:00 -0.2 C 94 % -1.05 C
45 15-02-2015 03:40:00 -0.2 C 94 % -1.05 C
46 15-02-2015 03:45:00 -0.3 C 94 % -1.15 C
47 15-02-2015 03:50:00 -0.4 C 94 % -1.25 C
48 15-02-2015 03:55:00 -0.4 C 94 % -1.25 C
49 15-02-2015 04:00:00 -0.4 C 94 % -1.25 C
50 15-02-2015 04:05:00 -0.4 C 94 % -1.25 C
Sensor: Nr:Datum:Temp:Feuchte:Taupunkt:
Aussen-T/F 51 15-02-2015 04:10:00 -0.5 C 94 % -1.34 C
52 15-02-2015 04:15:00 -0.5 C 94 % -1.34 C
53 15-02-2015 04:20:00 -0.6 C 94 % -1.44 C
54 15-02-2015 04:25:00 -0.6 C 94 % -1.44 C
55 15-02-2015 04:30:00 -0.5 C 95 % -1.2 C
56 15-02-2015 04:35:00 -0.5 C 95 % -1.2 C
57 15-02-2015 04:40:00 -0.5 C 95 % -1.2 C
58 15-02-2015 04:45:00 -0.6 C 95 % -1.3 C
59 15-02-2015 04:50:00 -0.6 C 95 % -1.3 C
60 15-02-2015 04:55:00 -0.6 C 95 % -1.3 C
61 15-02-2015 05:00:00 -0.6 C 95 % -1.3 C
62 15-02-2015 05:05:00 -0.6 C 95 % -1.3 C
63 15-02-2015 05:10:00 -0.6 C 95 % -1.3 C
64 15-02-2015 05:15:00 -0.7 C 94 % -1.54 C
65 15-02-2015 05:20:00 -0.8 C 94 % -1.64 C
66 15-02-2015 05:25:00 -0.8 C 94 % -1.64 C
67 15-02-2015 05:30:00 -0.8 C 94 % -1.64 C
68 15-02-2015 05:35:00 -0.9 C 94 % -1.74 C
69 15-02-2015 05:40:00 -0.9 C 95 % -1.6 C
70 15-02-2015 05:45:00 -0.9 C 95 % -1.6 C
71 15-02-2015 05:50:00 -0.9 C 95 % -1.6 C
72 15-02-2015 05:55:00 -0.9 C 95 % -1.6 C
73 15-02-2015 06:00:00 -1 C 95 % -1.7 C
74 15-02-2015 06:05:00 -1 C 95 % -1.7 C
75 15-02-2015 06:10:00 -1 C 95 % -1.7 C
Sensor: Nr:Datum:Temp:Feuchte:Taupunkt:
Aussen-T/F 76 15-02-2015 06:15:00 -1.1 C 95 % -1.8 C
77 15-02-2015 06:20:00 -1.1 C 94 % -1.94 C
78 15-02-2015 06:25:00 -1.2 C 94 % -2.04 C
79 15-02-2015 06:30:00 -1.3 C 94 % -2.14 C
80 15-02-2015 06:35:00 -1.3 C 94 % -2.14 C
81 15-02-2015 06:40:00 -1.4 C 95 % -2.1 C
82 15-02-2015 06:45:00 -1.4 C 94 % -2.24 C
83 15-02-2015 06:50:00 -1.3 C 95 % -2 C
84 15-02-2015 06:55:00 -1.4 C 94 % -2.24 C
85 15-02-2015 07:00:00 -1.4 C 95 % -2.1 C
86 15-02-2015 07:05:00 -1.3 C 95 % -2 C
87 15-02-2015 07:10:00 -1.4 C 95 % -2.1 C
88 15-02-2015 07:15:00 -1.4 C 95 % -2.1 C
89 15-02-2015 07:20:00 -1.4 C 95 % -2.1 C
90 15-02-2015 07:25:00 -1.5 C 95 % -2.19 C
91 15-02-2015 07:30:00 -1.6 C 95 % -2.29 C
92 15-02-2015 07:35:00 -1.6 C 95 % -2.29 C
93 15-02-2015 07:40:00 -1.6 C 95 % -2.29 C
94 15-02-2015 07:45:00 -1.5 C 95 % -2.19 C
95 15-02-2015 07:50:00 -1.5 C 95 % -2.19 C
96 15-02-2015 07:55:00 -1.5 C 95 % -2.19 C
97 15-02-2015 08:00:00 -1.6 C 95 % -2.29 C
98 15-02-2015 08:05:00 -1.6 C 95 % -2.29 C
99 15-02-2015 08:10:00 -1.5 C 95 % -2.19 C
100 15-02-2015 08:15:00 -1.5 C 95 % -2.19 C
Sensor: Nr:Datum:Temp:Feuchte:Taupunkt:
Aussen-T/F 101 15-02-2015 08:20:00 -1.4 C 95 % -2.1 C
102 15-02-2015 08:25:00 -1.4 C 95 % -2.1 C
103 15-02-2015 08:30:00 -1.4 C 95 % -2.1 C
104 15-02-2015 08:35:00 -1.4 C 95 % -2.1 C
105 15-02-2015 08:40:00 -1.4 C 95 % -2.1 C
106 15-02-2015 08:45:00 -1.3 C 95 % -2 C
107 15-02-2015 08:50:00 -1.3 C 96 % -1.85 C
108 15-02-2015 08:55:00 -1.3 C 96 % -1.85 C
109 15-02-2015 09:00:00 -1.3 C 96 % -1.85 C
110 15-02-2015 09:05:00 -1.3 C 95 % -2 C
111 15-02-2015 09:10:00 -1.2 C 96 % -1.75 C
112 15-02-2015 09:15:00 -1.2 C 96 % -1.75 C
113 15-02-2015 09:20:00 -1.1 C 96 % -1.66 C
114 15-02-2015 09:25:00 -1.1 C 96 % -1.66 C
115 15-02-2015 09:30:00 -0.9 C 96 % -1.46 C
116 15-02-2015 09:35:00 -0.9 C 96 % -1.46 C
117 15-02-2015 09:40:00 -0.8 C 96 % -1.36 C
118 15-02-2015 09:45:00 -0.8 C 96 % -1.36 C
119 15-02-2015 09:50:00 -0.7 C 96 % -1.26 C
120 15-02-2015 09:55:00 -0.6 C 96 % -1.16 C
121 15-02-2015 10:00:00 -0.5 C 96 % -1.06 C
122 15-02-2015 10:05:00 -0.4 C 96 % -0.96 C
123 15-02-2015 10:10:00 -0.3 C 96 % -0.86 C
124 15-02-2015 10:15:00 -0.2 C 96 % -0.76 C
125 15-02-2015 10:20:00 -0.1 C 95 % -0.8 C
Sensor: Nr:Datum:Temp:Feuchte:Taupunkt:
Aussen-T/F 126 15-02-2015 10:25:00 0 C 95 % -0.7 C
127 15-02-2015 10:30:00 0.1 C 95 % -0.6 C
128 15-02-2015 10:35:00 0.2 C 95 % -0.5 C
129 15-02-2015 10:40:00 0.3 C 95 % -0.4 C
130 15-02-2015 10:45:00 0.4 C 95 % -0.31 C
131 15-02-2015 10:50:00 0.5 C 95 % -0.21 C
132 15-02-2015 10:55:00 0.6 C 94 % -0.25 C
133 15-02-2015 11:00:00 0.7 C 94 % -0.15 C
134 15-02-2015 11:05:00 0.8 C 94 % -0.05 C
135 15-02-2015 11:10:00 0.9 C 94 % 0.05 C
136 15-02-2015 11:15:00 1.1 C 93 % 0.1 C
137 15-02-2015 11:20:00 1.2 C 93 % 0.2 C
138 15-02-2015 11:25:00 1.3 C 92 % 0.15 C
139 15-02-2015 11:30:00 1.4 C 92 % 0.25 C
140 15-02-2015 11:35:00 1.7 C 90 % 0.24 C
141 15-02-2015 11:40:00 2 C 88 % 0.23 C
142 15-02-2015 11:45:00 2.2 C 89 % 0.58 C
143 15-02-2015 11:50:00 2.1 C 89 % 0.48 C
144 15-02-2015 11:55:00 2.1 C 90 % 0.64 C
145 15-02-2015 12:00:00 2.1 C 90 % 0.64 C
146 15-02-2015 12:05:00 2.1 C 90 % 0.64 C
147 15-02-2015 12:10:00 2.3 C 90 % 0.83 C
148 15-02-2015 12:15:00 2.3 C 89 % 0.68 C
149 15-02-2015 12:20:00 2.4 C 89 % 0.78 C
150 15-02-2015 12:25:00 2.6 C 89 % 0.97 C
Sensor: Nr:Datum:Temp:Feuchte:Taupunkt:
Aussen-T/F 151 15-02-2015 12:30:00 2.8 C 89 % 1.17 C
152 15-02-2015 12:35:00 2.9 C 89 % 1.27 C
153 15-02-2015 12:40:00 3.1 C 88 % 1.31 C
154 15-02-2015 12:45:00 3.3 C 88 % 1.51 C
155 15-02-2015 12:50:00 3.6 C 86 % 1.48 C
156 15-02-2015 12:55:00 3.8 C 85 % 1.52 C
157 15-02-2015 13:00:00 4.3 C 83 % 1.67 C
158 15-02-2015 13:05:00 4.7 C 80 % 1.55 C
159 15-02-2015 13:10:00 5.1 C 78 % 1.59 C
160 15-02-2015 13:15:00 5.4 C 78 % 1.88 C
161 15-02-2015 13:20:00 5.8 C 75 % 1.72 C
162 15-02-2015 13:25:00 6 C 77 % 2.28 C
163 15-02-2015 13:30:00 6 C 73 % 1.54 C
164 15-02-2015 13:35:00 6.2 C 75 % 2.11 C
165 15-02-2015 13:40:00 6.2 C 76 % 2.29 C
166 15-02-2015 13:45:00 6.2 C 76 % 2.29 C
167 15-02-2015 13:50:00 6.2 C 75 % 2.11 C
168 15-02-2015 13:55:00 6.4 C 74 % 2.11 C
169 15-02-2015 14:00:00 6.6 C 73 % 2.12 C
170 15-02-2015 14:05:00 6.6 C 75 % 2.49 C
171 15-02-2015 14:10:00 6.4 C 75 % 2.3 C
172 15-02-2015 14:15:00 6.7 C 76 % 2.78 C
173 15-02-2015 14:20:00 6.8 C 75 % 2.69 C
174 15-02-2015 14:25:00 6.8 C 76 % 2.87 C
175 15-02-2015 14:30:00 6.7 C 75 % 2.59 C
Sensor: Nr:Datum:Temp:Feuchte:Taupunkt:
Aussen-T/F 176 15-02-2015 14:35:00 6.7 C 76 % 2.78 C
177 15-02-2015 14:40:00 6.8 C 75 % 2.69 C
178 15-02-2015 14:45:00 6.9 C 73 % 2.4 C
179 15-02-2015 14:50:00 7.1 C 75 % 2.98 C
180 15-02-2015 14:55:00 6.9 C 75 % 2.78 C
181 15-02-2015 15:00:00 7.2 C 73 % 2.69 C
182 15-02-2015 15:05:00 7.4 C 76 % 3.45 C
183 15-02-2015 15:10:00 7.2 C 76 % 3.26 C
184 15-02-2015 15:15:00 7 C 78 % 3.43 C
185 15-02-2015 15:20:00 6.9 C 78 % 3.34 C
186 15-02-2015 15:25:00 6.8 C 77 % 3.06 C
187 15-02-2015 15:30:00 6.7 C 78 % 3.14 C
188 15-02-2015 15:35:00 6.7 C 78 % 3.14 C
189 15-02-2015 15:40:00 6.6 C 77 % 2.86 C
190 15-02-2015 15:45:00 6.5 C 79 % 3.13 C
191 15-02-2015 15:50:00 6.4 C 79 % 3.03 C
192 15-02-2015 15:55:00 6.4 C 79 % 3.03 C
193 15-02-2015 16:00:00 6.3 C 79 % 2.93 C
194 15-02-2015 16:05:00 6.3 C 79 % 2.93 C
195 15-02-2015 16:10:00 6.2 C 80 % 3.01 C
196 15-02-2015 16:15:00 6.2 C 80 % 3.01 C
197 15-02-2015 16:20:00 6.2 C 80 % 3.01 C
198 15-02-2015 16:25:00 6.1 C 81 % 3.09 C
199 15-02-2015 16:30:00 5.9 C 81 % 2.9 C
200 15-02-2015 16:35:00 5.8 C 81 % 2.8 C
Sensor: Nr:Datum:Temp:Feuchte:Taupunkt:
Aussen-T/F 201 15-02-2015 16:40:00 5.8 C 81 % 2.8 C
202 15-02-2015 16:45:00 5.8 C 81 % 2.8 C
203 15-02-2015 16:50:00 5.7 C 81 % 2.7 C
204 15-02-2015 16:55:00 5.5 C 82 % 2.68 C
205 15-02-2015 17:00:00 5.3 C 82 % 2.48 C
206 15-02-2015 17:05:00 5.2 C 82 % 2.39 C
207 15-02-2015 17:10:00 5.2 C 82 % 2.39 C
208 15-02-2015 17:15:00 5.2 C 82 % 2.39 C
209 15-02-2015 17:20:00 5.2 C 81 % 2.21 C
210 15-02-2015 17:25:00 5.1 C 81 % 2.12 C
211 15-02-2015 17:30:00 4.9 C 80 % 1.75 C
212 15-02-2015 17:35:00 4.8 C 81 % 1.82 C
213 15-02-2015 17:40:00 4.7 C 81 % 1.73 C
214 15-02-2015 17:45:00 4.5 C 81 % 1.53 C
215 15-02-2015 17:50:00 4.3 C 82 % 1.51 C
216 15-02-2015 17:55:00 4.2 C 82 % 1.41 C
217 15-02-2015 18:00:00 3.9 C 83 % 1.28 C
218 15-02-2015 18:05:00 3.8 C 83 % 1.19 C
219 15-02-2015 18:10:00 3.6 C 83 % 0.99 C
220 15-02-2015 18:15:00 3.6 C 84 % 1.16 C
221 15-02-2015 18:20:00 3.4 C 84 % 0.96 C
222 15-02-2015 18:25:00 3.3 C 84 % 0.86 C
223 15-02-2015 18:30:00 3.2 C 85 % 0.93 C
224 15-02-2015 18:35:00 3.1 C 86 % 0.99 C
225 15-02-2015 18:40:00 3.1 C 86 % 0.99 C
Sensor: Nr:Datum:Temp:Feuchte:Taupunkt:
Aussen-T/F 226 15-02-2015 18:45:00 3 C 86 % 0.89 C
227 15-02-2015 18:50:00 3 C 86 % 0.89 C
228 15-02-2015 18:55:00 3 C 86 % 0.89 C
229 15-02-2015 19:00:00 3 C 86 % 0.89 C
230 15-02-2015 19:05:00 3 C 86 % 0.89 C
231 15-02-2015 19:10:00 2.9 C 87 % 0.96 C
232 15-02-2015 19:15:00 2.8 C 87 % 0.86 C
233 15-02-2015 19:20:00 2.7 C 88 % 0.92 C
234 15-02-2015 19:25:00 2.7 C 88 % 0.92 C
235 15-02-2015 19:30:00 2.6 C 88 % 0.82 C
236 15-02-2015 19:35:00 2.5 C 88 % 0.72 C
237 15-02-2015 19:40:00 2.5 C 88 % 0.72 C
238 15-02-2015 19:45:00 2.4 C 89 % 0.78 C
239 15-02-2015 19:50:00 2.4 C 89 % 0.78 C
240 15-02-2015 19:55:00 2.3 C 89 % 0.68 C
241 15-02-2015 20:00:00 2.2 C 89 % 0.58 C
242 15-02-2015 20:05:00 2.2 C 89 % 0.58 C
243 15-02-2015 20:10:00 2.2 C 90 % 0.73 C
244 15-02-2015 20:15:00 2.1 C 90 % 0.64 C
245 15-02-2015 20:20:00 2 C 90 % 0.54 C
246 15-02-2015 20:25:00 1.9 C 90 % 0.44 C
247 15-02-2015 20:30:00 1.9 C 91 % 0.59 C
248 15-02-2015 20:35:00 1.9 C 91 % 0.59 C
249 15-02-2015 20:40:00 1.9 C 91 % 0.59 C
250 15-02-2015 20:45:00 1.8 C 90 % 0.34 C
Sensor: Nr:Datum:Temp:Feuchte:Taupunkt:
Aussen-T/F 251 15-02-2015 20:50:00 1.7 C 90 % 0.24 C
252 15-02-2015 20:55:00 1.7 C 91 % 0.39 C
253 15-02-2015 21:00:00 1.6 C 91 % 0.29 C
254 15-02-2015 21:05:00 1.5 C 91 % 0.19 C
255 15-02-2015 21:10:00 1.4 C 91 % 0.1 C
256 15-02-2015 21:15:00 1.4 C 91 % 0.1 C
257 15-02-2015 21:20:00 1.3 C 91 % 0 C
258 15-02-2015 21:25:00 1.2 C 91 % -0.1 C
259 15-02-2015 21:30:00 1.1 C 91 % -0.2 C
260 15-02-2015 21:35:00 1.1 C 91 % -0.2 C
261 15-02-2015 21:40:00 0.9 C 91 % -0.4 C
262 15-02-2015 21:45:00 0.9 C 91 % -0.4 C
263 15-02-2015 21:50:00 0.8 C 91 % -0.5 C
264 15-02-2015 21:55:00 0.7 C 92 % -0.45 C
265 15-02-2015 22:00:00 0.6 C 92 % -0.55 C
266 15-02-2015 22:05:00 0.6 C 92 % -0.55 C
267 15-02-2015 22:10:00 0.5 C 92 % -0.65 C
268 15-02-2015 22:15:00 0.4 C 92 % -0.74 C
269 15-02-2015 22:20:00 0.3 C 92 % -0.84 C
270 15-02-2015 22:25:00 0.4 C 93 % -0.6 C
271 15-02-2015 22:30:00 0.4 C 93 % -0.6 C
272 15-02-2015 22:35:00 0.3 C 93 % -0.7 C
273 15-02-2015 22:40:00 0.2 C 93 % -0.79 C
274 15-02-2015 22:45:00 0.2 C 93 % -0.79 C
275 15-02-2015 22:50:00 0.1 C 93 % -0.89 C
Sensor: Nr:Datum:Temp:Feuchte:Taupunkt:
Aussen-T/F 276 15-02-2015 22:55:00 0 C 93 % -0.99 C
277 15-02-2015 23:00:00 -0.1 C 93 % -1.09 C
278 15-02-2015 23:05:00 -0.2 C 94 % -1.05 C
279 15-02-2015 23:10:00 -0.2 C 94 % -1.05 C
280 15-02-2015 23:15:00 -0.2 C 94 % -1.05 C
281 15-02-2015 23:20:00 -0.1 C 94 % -0.95 C
282 15-02-2015 23:25:00 -0.1 C 94 % -0.95 C
283 15-02-2015 23:30:00 -0.1 C 94 % -0.95 C
284 15-02-2015 23:35:00 -0.1 C 94 % -0.95 C
285 15-02-2015 23:40:00 -0.1 C 94 % -0.95 C
286 15-02-2015 23:45:00 -0.1 C 94 % -0.95 C
287 15-02-2015 23:50:00 -0.2 C 94 % -1.05 C
288 15-02-2015 23:55:00 -0.3 C 94 % -1.15 C

Legende:
   Min
   Max


Maximal/Minimal-Werte vom 15.02.2015 - 15.02.2015

Sensor Min Max Avg
Temp
(Aussen-T/F)
-1.6 °C
15-02-2015  07:30:00
7.4 °C
15-02-2015  15:05:00
1.73 °C
Feuchte
(Aussen-T/F)
73 %
15-02-2015  13:30:00
96 %
15-02-2015  08:50:00
89.35 %
Taupunkt
(Aussen-T/F)
-2.29 C
15-02-2015  07:30:00
3.45 C
15-02-2015  15:05:00
0.11 C

Die Daten stammen von einer Davis Vantage Pro 2 Wetter-Station und werden unter Linux mit der Software wview2wettercgi und aufbereitet. Alle Angaben erfolgen ohne Gewähr für ihre Vollständigkeit oder Richtigkeit.
Kontakt: Rainer Krienke krienke@uni-koblenz.de . Meine Webseiten an der Uni Koblenz oder privat.
Version: $Revision: 0.78 $